createdAt,value
2019-05-20T00:01:13.372Z,28.33
2019-05-20T00:03:42.323Z,29.93
2019-05-20T00:06:11.357Z,28.23
2019-05-20T00:08:41.438Z,31.50
2019-05-20T00:11:10.465Z,31.67
2019-05-20T00:13:39.401Z,29.43
2019-05-20T00:16:08.370Z,32.03
2019-05-20T00:18:37.316Z,28.10
2019-05-20T00:21:06.273Z,29.30
2019-05-20T00:23:35.221Z,29.00
2019-05-20T00:26:05.158Z,28.33
2019-05-20T00:28:34.156Z,32.23
2019-05-20T00:31:04.184Z,32.07
2019-05-20T00:33:33.127Z,29.43
2019-05-20T00:36:02.105Z,32.70
2019-05-20T00:38:31.135Z,30.40
2019-05-20T00:41:00.182Z,31.67
2019-05-20T00:43:29.143Z,29.43
2019-05-20T00:45:58.088Z,28.83
2019-05-20T00:48:27.023Z,27.63
2019-05-20T00:50:57.048Z,27.07
2019-05-20T00:53:25.996Z,27.20
2019-05-20T00:55:54.957Z,26.10
2019-05-20T00:58:23.911Z,28.10
2019-05-20T01:00:54.771Z,30.80
2019-05-20T01:03:23.738Z,26.27
2019-05-20T01:05:52.706Z,33.90
2019-05-20T01:08:21.664Z,31.70
2019-05-20T01:10:50.613Z,32.93
2019-05-20T01:13:19.558Z,33.13
2019-05-20T01:15:48.514Z,28.23
2019-05-20T01:18:17.475Z,29.90
2019-05-20T01:20:46.423Z,30.80
2019-05-20T01:23:15.376Z,33.53
2019-05-20T01:25:44.318Z,35.33
2019-05-20T01:28:13.265Z,34.23
2019-05-20T01:30:42.228Z,34.30
2019-05-20T01:33:14.192Z,34.07
2019-05-20T01:35:41.835Z,30.47
2019-05-20T01:38:10.837Z,33.27
2019-05-20T01:40:39.827Z,31.70
2019-05-20T01:43:08.784Z,39.07
2019-05-20T01:45:38.685Z,31.97
2019-05-20T01:48:07.631Z,31.13
2019-05-20T01:50:36.584Z,31.43
2019-05-20T01:53:05.534Z,31.73
2019-05-20T01:55:34.507Z,38.47
2019-05-20T01:58:03.469Z,34.53
2019-05-20T02:00:32.426Z,34.57
2019-05-20T02:03:01.368Z,35.93
2019-05-20T02:05:30.345Z,31.63
2019-05-20T02:07:59.379Z,32.67
2019-05-20T02:10:28.329Z,31.43
2019-05-20T02:12:57.300Z,30.77
2019-05-20T02:15:39.932Z,30.60
2019-05-20T02:18:08.889Z,28.80
2019-05-20T02:20:37.843Z,30.93
2019-05-20T02:23:16.344Z,33.37
2019-05-20T02:25:46.893Z,35.57
2019-05-20T02:28:16.129Z,31.37
2019-05-20T02:30:45.092Z,35.13
2019-05-20T02:33:14.142Z,35.67
2019-05-20T02:35:44.159Z,32.67
2019-05-20T02:38:15.151Z,32.43
2019-05-20T02:40:45.064Z,31.87
2019-05-20T02:46:03.306Z,33.10
2019-05-20T02:48:32.266Z,30.13
2019-05-20T02:51:01.208Z,35.43
2019-05-20T02:53:30.173Z,32.43
2019-05-20T02:55:59.304Z,34.20
2019-05-20T02:58:28.360Z,27.90
2019-05-20T03:00:58.220Z,31.60
2019-05-20T03:03:27.200Z,32.17
2019-05-20T03:05:56.136Z,31.33
2019-05-20T03:08:25.095Z,31.33
2019-05-20T03:10:54.045Z,33.73
2019-05-20T03:13:22.999Z,32.43
2019-05-20T03:15:51.947Z,34.47
2019-05-20T03:18:20.977Z,34.03
2019-05-20T03:20:49.924Z,39.60
2019-05-20T03:23:19.143Z,41.97
2019-05-20T03:25:48.088Z,39.40
2019-05-20T03:28:17.048Z,39.23
2019-05-20T03:30:46.061Z,38.30
2019-05-20T03:33:15.033Z,34.30
2019-05-20T03:35:43.968Z,38.30
2019-05-20T03:38:12.924Z,33.60
2019-05-20T03:40:41.874Z,34.37
2019-05-20T03:43:10.830Z,35.83
2019-05-20T03:45:39.787Z,37.80
2019-05-20T03:48:08.761Z,36.17
2019-05-20T03:50:37.705Z,39.03
2019-05-20T03:53:06.671Z,33.17
2019-05-20T03:55:36.668Z,37.73
2019-05-20T03:58:05.625Z,32.73
2019-05-20T04:00:43.379Z,36.50
2019-05-20T04:03:13.856Z,33.37
2019-05-20T04:05:44.058Z,38.33
2019-05-20T04:08:13.175Z,36.07
2019-05-20T04:10:42.135Z,36.13
2019-05-20T04:13:11.104Z,39.23
2019-05-20T04:15:40.066Z,35.03
2019-05-20T04:18:09.031Z,36.13
2019-05-20T04:20:37.971Z,38.20
2019-05-20T04:23:06.933Z,35.47
2019-05-20T04:25:35.884Z,39.93
2019-05-20T04:28:04.839Z,39.53
2019-05-20T04:30:33.804Z,38.77
2019-05-20T04:33:03.767Z,37.90
2019-05-20T04:35:32.706Z,39.03
2019-05-20T04:38:03.672Z,40.97
2019-05-20T04:40:32.626Z,38.73
2019-05-20T04:43:01.581Z,43.23
2019-05-20T04:45:30.614Z,42.53
2019-05-20T04:47:59.567Z,38.00
2019-05-20T04:50:28.589Z,43.37
2019-05-20T04:52:57.538Z,46.07
2019-05-20T04:55:26.477Z,41.93
2019-05-20T04:57:55.437Z,41.20
2019-05-20T05:00:34.823Z,42.70
2019-05-20T05:03:03.800Z,43.90
2019-05-20T05:05:37.761Z,44.30
2019-05-20T05:08:03.400Z,41.47
2019-05-20T05:10:32.352Z,43.90
2019-05-20T05:13:01.338Z,45.73
2019-05-20T05:15:35.373Z,45.67
2019-05-20T05:18:04.332Z,45.57
2019-05-20T05:20:33.295Z,40.73
2019-05-20T05:23:02.248Z,35.47
2019-05-20T05:25:31.196Z,40.20
2019-05-20T05:28:00.170Z,38.83
2019-05-20T05:30:30.126Z,42.57
2019-05-20T05:32:59.090Z,43.87
2019-05-20T05:35:28.027Z,42.70
2019-05-20T05:37:57.108Z,51.40
2019-05-20T05:40:29.556Z,54.37
2019-05-20T05:42:58.552Z,58.37
2019-05-20T05:45:31.174Z,57.37
2019-05-20T05:48:00.282Z,57.57
2019-05-20T05:50:29.228Z,60.40
2019-05-20T05:52:58.176Z,61.27
2019-05-20T05:55:27.128Z,63.53
2019-05-20T05:57:56.277Z,66.27
2019-05-20T06:00:26.369Z,66.17
2019-05-20T06:02:55.324Z,61.67
2019-05-20T06:05:24.282Z,63.57
2019-05-20T06:07:53.242Z,65.93
2019-05-20T06:10:22.356Z,66.63
2019-05-20T06:12:51.370Z,65.10
2019-05-20T06:15:20.469Z,66.13
2019-05-20T06:17:49.437Z,66.97
2019-05-20T06:20:18.398Z,66.13
2019-05-20T06:22:47.384Z,69.53
2019-05-20T06:25:16.621Z,64.10
2019-05-20T06:27:45.632Z,63.20
2019-05-20T06:30:15.937Z,66.10
2019-05-20T06:32:45.203Z,70.97
2019-05-20T06:35:15.626Z,67.60
2019-05-20T06:37:49.450Z,67.87
2019-05-20T06:40:18.495Z,63.73
2019-05-20T06:42:47.448Z,64.93
2019-05-20T06:45:16.557Z,71.47
2019-05-20T06:47:45.518Z,66.97
2019-05-20T06:50:14.484Z,67.67
2019-05-20T06:52:43.423Z,61.57
2019-05-20T06:55:12.443Z,63.47
2019-05-20T06:57:41.396Z,62.07
2019-05-20T07:00:10.753Z,65.47
2019-05-20T07:02:39.779Z,63.87
2019-05-20T07:05:08.907Z,63.13
2019-05-20T07:07:37.855Z,64.10
2019-05-20T07:10:07.716Z,70.60
2019-05-20T07:12:41.099Z,64.40
2019-05-20T07:15:07.556Z,73.33
2019-05-20T07:17:37.863Z,66.73
2019-05-20T07:20:06.821Z,69.70
2019-05-20T07:22:54.527Z,63.83
2019-05-20T07:25:07.769Z,69.37
2019-05-20T07:27:36.715Z,76.23
2019-05-20T07:30:05.953Z,72.47
2019-05-20T07:32:34.961Z,74.07
2019-05-20T07:35:05.454Z,69.33
2019-05-20T07:37:34.433Z,73.90
2019-05-20T07:40:03.910Z,73.47
2019-05-20T07:42:32.847Z,73.03
2019-05-20T07:45:01.836Z,78.53
2019-05-20T07:47:30.901Z,76.13
2019-05-20T07:49:59.942Z,79.00
2019-05-20T07:52:28.884Z,71.77
2019-05-20T07:54:58.328Z,75.72
2019-05-20T07:57:28.848Z,67.25
2019-05-20T07:59:57.981Z,68.40
2019-05-20T08:02:26.925Z,69.73
2019-05-20T08:04:55.967Z,74.60
2019-05-20T08:07:35.582Z,75.43
2019-05-20T08:09:56.710Z,73.20
2019-05-20T08:12:25.667Z,68.80
2019-05-20T08:14:54.632Z,64.07
2019-05-20T08:17:23.594Z,65.00
2019-05-20T08:19:52.545Z,64.90
2019-05-20T08:22:21.500Z,62.95
2019-05-20T08:24:50.485Z,60.63
2019-05-20T08:27:21.998Z,57.95
2019-05-20T08:29:50.951Z,60.15
2019-05-20T08:32:19.905Z,58.45
2019-05-20T08:34:48.848Z,56.75
2019-05-20T08:37:17.825Z,54.50
2019-05-20T08:39:46.837Z,54.55
2019-05-20T08:42:15.812Z,60.08
2019-05-20T08:44:44.747Z,56.63
2019-05-20T08:47:13.724Z,61.40
2019-05-20T08:49:43.343Z,56.53
2019-05-20T08:52:13.097Z,62.08
2019-05-20T08:54:42.208Z,64.58
2019-05-20T08:57:11.152Z,61.25
2019-05-20T08:59:40.099Z,66.67
2019-05-20T09:02:10.023Z,60.17
2019-05-20T09:04:39.028Z,61.65
2019-05-20T09:07:08.041Z,57.65
2019-05-20T09:09:37.081Z,53.78
2019-05-20T09:12:06.205Z,52.67
2019-05-20T09:14:35.288Z,51.33
2019-05-20T09:17:04.246Z,51.30
2019-05-20T09:19:33.189Z,52.48
2019-05-20T09:22:02.242Z,52.00
2019-05-20T09:24:31.295Z,49.75
2019-05-20T09:27:00.252Z,52.62
2019-05-20T09:29:29.200Z,55.65
2019-05-20T09:31:58.239Z,53.68
2019-05-20T09:34:27.177Z,55.38
2019-05-20T09:36:56.135Z,51.88
2019-05-20T09:39:25.154Z,51.58
2019-05-20T09:41:54.107Z,57.38
2019-05-20T09:44:23.132Z,55.60
2019-05-20T09:46:52.165Z,52.33
2019-05-20T09:49:21.127Z,52.08
2019-05-20T09:51:50.093Z,46.55
2019-05-20T09:54:19.036Z,51.35
2019-05-20T09:56:48.008Z,55.00
2019-05-20T09:59:17.014Z,57.90
2019-05-20T10:01:46.041Z,56.90
2019-05-20T10:04:14.972Z,56.40
2019-05-20T10:06:44.038Z,57.62
2019-05-20T10:09:13.053Z,62.30
2019-05-20T10:11:42.016Z,59.45
2019-05-20T10:14:10.974Z,64.72
2019-05-20T10:16:39.940Z,61.60
2019-05-20T10:19:08.910Z,65.97
2019-05-20T10:21:37.922Z,65.92
2019-05-20T10:24:06.879Z,67.17
2019-05-20T10:26:35.901Z,69.72
2019-05-20T10:29:04.896Z,66.07
2019-05-20T10:31:33.854Z,64.75
2019-05-20T10:34:02.809Z,62.38
2019-05-20T10:36:31.759Z,66.53
2019-05-20T10:39:00.722Z,66.40
2019-05-20T10:41:31.149Z,61.15
2019-05-20T10:44:00.101Z,63.58
2019-05-20T10:46:29.056Z,68.85
2019-05-20T10:48:58.014Z,62.58
2019-05-20T10:51:26.977Z,60.23
2019-05-20T10:53:55.957Z,65.37
2019-05-20T10:56:24.917Z,55.73
2019-05-20T10:58:53.890Z,55.85
2019-05-20T11:01:22.833Z,56.30
2019-05-20T11:03:51.828Z,59.08
2019-05-20T11:06:21.847Z,57.00
2019-05-20T11:08:50.792Z,57.62
2019-05-20T11:11:19.751Z,56.15
2019-05-20T11:13:48.710Z,56.48
2019-05-20T11:16:18.409Z,53.78
2019-05-20T11:18:47.437Z,53.30
2019-05-20T11:21:16.388Z,55.10
2019-05-20T11:23:45.362Z,52.55
2019-05-20T11:26:14.387Z,54.88
2019-05-20T11:28:43.337Z,53.38
2019-05-20T11:31:12.284Z,52.48
2019-05-20T11:33:41.283Z,58.68
2019-05-20T11:36:10.263Z,54.60
2019-05-20T11:38:39.222Z,53.38
2019-05-20T11:41:08.169Z,54.13
2019-05-20T11:43:38.292Z,55.48
2019-05-20T11:46:07.241Z,51.25
2019-05-20T11:48:36.206Z,52.65
2019-05-20T11:51:05.311Z,50.40
2019-05-20T11:53:34.410Z,48.65
2019-05-20T11:56:03.356Z,51.13
2019-05-20T11:58:32.310Z,49.90
2019-05-20T12:01:01.276Z,46.25
2019-05-20T12:03:30.293Z,51.08
2019-05-20T12:05:59.257Z,48.00
2019-05-20T12:08:28.212Z,43.98
2019-05-20T12:10:57.152Z,48.65
2019-05-20T12:13:26.588Z,45.10
2019-05-20T12:15:55.534Z,41.88
2019-05-20T12:18:24.475Z,47.60
2019-05-20T12:20:53.467Z,47.75
2019-05-20T12:23:22.468Z,47.20
2019-05-20T12:25:51.424Z,50.70
2019-05-20T12:28:20.400Z,51.55
2019-05-20T12:30:49.367Z,51.33
2019-05-20T12:33:19.622Z,49.65
2019-05-20T12:35:49.002Z,50.10
2019-05-20T12:38:17.973Z,48.58
2019-05-20T12:40:47.287Z,46.68
2019-05-20T12:43:16.259Z,48.45
2019-05-20T12:45:45.195Z,47.35
2019-05-20T12:48:14.150Z,46.55
2019-05-20T12:50:43.093Z,50.60
2019-05-20T12:53:12.078Z,48.05
2019-05-20T12:55:41.024Z,50.12
2019-05-20T12:58:09.994Z,49.53
2019-05-20T13:00:38.953Z,54.83
2019-05-20T13:03:07.905Z,61.08
2019-05-20T13:05:36.870Z,55.25
2019-05-20T13:08:05.939Z,56.68
2019-05-20T13:10:34.970Z,53.13
2019-05-20T13:13:04.014Z,48.80
2019-05-20T13:15:32.966Z,50.38
2019-05-20T13:18:01.939Z,48.00
2019-05-20T13:20:31.027Z,48.40
2019-05-20T13:22:59.995Z,48.92
2019-05-20T13:25:28.965Z,47.88
2019-05-20T13:27:57.904Z,45.40
2019-05-20T13:30:26.927Z,46.45
2019-05-20T13:32:55.873Z,55.03
2019-05-20T13:35:24.891Z,48.73
2019-05-20T13:37:53.870Z,46.73
2019-05-20T13:40:22.866Z,48.00
2019-05-20T13:42:51.924Z,54.27
2019-05-20T13:45:20.916Z,49.75
2019-05-20T13:47:49.849Z,51.55
2019-05-20T13:50:18.989Z,50.75
2019-05-20T13:52:47.924Z,48.55
2019-05-20T13:55:16.959Z,49.73
2019-05-20T13:57:45.949Z,47.17
2019-05-20T14:00:14.983Z,50.88
2019-05-20T14:02:43.964Z,51.58
2019-05-20T14:05:12.930Z,46.68
2019-05-20T14:07:41.889Z,48.25
2019-05-20T14:10:11.015Z,46.60
2019-05-20T14:12:39.980Z,48.35
2019-05-20T14:15:09.112Z,50.20
2019-05-20T14:17:38.125Z,50.30
2019-05-20T14:20:07.346Z,43.90
2019-05-20T14:22:36.295Z,50.10
2019-05-20T14:25:06.625Z,46.00
2019-05-20T14:27:35.560Z,44.70
2019-05-20T14:30:05.839Z,47.15
2019-05-20T14:32:34.961Z,47.40
2019-05-20T14:35:05.389Z,46.20
2019-05-20T14:37:34.375Z,40.70
2019-05-20T14:40:04.234Z,43.05
2019-05-20T14:42:33.190Z,46.35
2019-05-20T14:45:02.159Z,48.75
2019-05-20T14:47:31.172Z,43.17
2019-05-20T14:50:00.142Z,39.78
2019-05-20T14:52:29.084Z,38.85
2019-05-20T14:54:58.051Z,33.70
2019-05-20T14:57:27.006Z,34.55
2019-05-20T14:59:55.992Z,35.85
2019-05-20T15:02:24.952Z,36.93
2019-05-20T15:04:53.901Z,36.28
2019-05-20T15:07:30.369Z,37.28
2019-05-20T15:09:53.540Z,35.15
2019-05-20T15:12:22.484Z,34.83
2019-05-20T15:14:51.448Z,37.30
2019-05-20T15:17:20.403Z,34.03
2019-05-20T15:19:49.369Z,30.08
2019-05-20T15:22:18.316Z,33.23
2019-05-20T15:24:47.371Z,32.58
2019-05-20T15:27:16.320Z,32.75
2019-05-20T15:29:47.257Z,31.73
2019-05-20T15:32:16.206Z,31.25
2019-05-20T15:34:45.166Z,28.02
2019-05-20T15:37:14.198Z,28.23
2019-05-20T15:39:43.174Z,26.87
2019-05-20T15:42:12.121Z,27.80
2019-05-20T15:44:41.086Z,27.70
2019-05-20T15:47:10.062Z,25.82
2019-05-20T15:49:39.190Z,25.48
2019-05-20T15:52:08.360Z,26.70
2019-05-20T15:54:37.314Z,26.65
2019-05-20T15:57:06.261Z,29.05
2019-05-20T15:59:45.434Z,25.08
2019-05-20T16:02:06.006Z,25.08
2019-05-20T16:04:34.963Z,26.12
2019-05-20T16:07:03.939Z,25.95
2019-05-20T16:09:32.896Z,25.12
2019-05-20T16:12:01.883Z,24.77
2019-05-20T16:14:30.916Z,28.75
2019-05-20T16:16:59.878Z,29.42
2019-05-20T16:19:28.900Z,27.67
2019-05-20T16:21:57.870Z,29.15
2019-05-20T16:24:26.951Z,26.97
2019-05-20T16:26:55.907Z,31.77
2019-05-20T16:29:24.856Z,32.30
2019-05-20T16:31:53.817Z,30.92
2019-05-20T16:34:22.778Z,29.35
2019-05-20T16:36:51.757Z,30.15
2019-05-20T16:39:20.717Z,26.85
2019-05-20T16:41:49.672Z,25.85
2019-05-20T16:44:18.697Z,30.02
2019-05-20T16:46:47.726Z,29.07
2019-05-20T16:49:16.665Z,31.17
2019-05-20T16:51:45.644Z,30.75
2019-05-20T16:54:14.601Z,33.55
2019-05-20T16:56:43.572Z,29.63
2019-05-20T16:59:12.517Z,30.23
2019-05-20T17:01:46.262Z,32.13
2019-05-20T17:04:12.200Z,37.28
2019-05-20T17:06:41.230Z,35.17
2019-05-20T17:09:10.222Z,38.00
2019-05-20T17:11:39.284Z,40.40
2019-05-20T17:14:10.538Z,36.17
2019-05-20T17:16:38.936Z,41.15
2019-05-20T17:19:07.930Z,41.48
2019-05-20T17:21:36.890Z,43.83
2019-05-20T17:24:05.920Z,42.93
2019-05-20T17:26:34.954Z,43.90
2019-05-20T17:29:03.907Z,44.13
2019-05-20T17:31:33.022Z,45.40
2019-05-20T17:34:02.031Z,40.05
2019-05-20T17:36:30.983Z,51.65
2019-05-20T17:38:59.953Z,54.27
2019-05-20T17:41:28.988Z,55.65
2019-05-20T17:43:57.954Z,58.50
2019-05-20T17:46:26.988Z,62.00
2019-05-20T17:48:55.970Z,58.55
2019-05-20T17:51:24.955Z,61.23
2019-05-20T17:53:53.901Z,63.38
2019-05-20T17:56:22.864Z,62.58
2019-05-20T17:58:51.814Z,62.98
2019-05-20T18:01:20.784Z,65.87
2019-05-20T18:03:49.736Z,59.73
2019-05-20T18:06:18.742Z,64.72
2019-05-20T18:08:49.333Z,65.20
2019-05-20T18:11:19.285Z,71.00
2019-05-20T18:13:49.363Z,71.25
2019-05-20T18:16:18.327Z,65.70
2019-05-20T18:18:47.273Z,72.17
2019-05-20T18:21:17.148Z,67.97
2019-05-20T18:23:46.100Z,69.75
2019-05-20T18:26:15.094Z,64.87
2019-05-20T18:28:44.028Z,62.60
2019-05-20T18:31:12.981Z,61.50
2019-05-20T18:33:41.961Z,56.73
2019-05-20T18:36:10.918Z,55.85
2019-05-20T18:38:39.895Z,51.25
2019-05-20T18:41:08.905Z,52.17
2019-05-20T18:43:38.819Z,46.53
2019-05-20T18:46:07.778Z,43.48
2019-05-20T18:48:36.728Z,46.30
2019-05-20T18:51:06.648Z,46.25
2019-05-20T18:53:35.596Z,44.30
2019-05-20T18:56:04.550Z,43.83
2019-05-20T18:58:33.523Z,42.23
2019-05-20T19:01:02.480Z,46.45
2019-05-20T19:03:31.807Z,42.88
2019-05-20T19:06:00.821Z,43.78
2019-05-20T19:08:30.802Z,43.40
2019-05-20T19:10:59.842Z,43.83
2019-05-20T19:13:28.855Z,44.00
2019-05-20T19:16:03.996Z,44.25
2019-05-20T19:25:36.898Z,49.30
2019-05-20T19:27:54.038Z,46.60
2019-05-20T19:30:23.068Z,43.60
2019-05-20T19:32:52.029Z,47.98
2019-05-20T19:35:20.973Z,42.58
2019-05-20T19:37:49.995Z,47.27
2019-05-20T19:40:18.943Z,45.05
2019-05-20T19:42:47.979Z,42.80
2019-05-20T19:45:16.988Z,42.58
2019-05-20T19:47:46.033Z,44.10
2019-05-20T19:50:15.056Z,43.70
2019-05-20T19:52:44.060Z,42.30
2019-05-20T19:55:13.147Z,45.52
2019-05-20T19:57:42.105Z,45.05
2019-05-20T20:00:11.456Z,44.50
2019-05-20T20:02:40.413Z,46.55
2019-05-20T20:05:09.939Z,45.45
2019-05-20T20:07:38.961Z,44.55
2019-05-20T20:10:07.985Z,47.25
2019-05-20T20:12:37.013Z,43.98
2019-05-20T20:15:06.254Z,46.83
2019-05-20T20:17:35.303Z,50.45
2019-05-20T20:20:04.934Z,52.00
2019-05-20T20:22:33.941Z,55.03
2019-05-20T20:25:03.162Z,53.05
2019-05-20T20:27:32.208Z,58.83
2019-05-20T20:30:01.237Z,50.05
2019-05-20T20:32:38.014Z,53.80
2019-05-20T20:35:02.191Z,53.75
2019-05-20T20:37:31.150Z,54.67
2019-05-20T20:40:00.120Z,51.23
2019-05-20T20:42:29.137Z,50.17
2019-05-20T20:44:58.098Z,49.23
2019-05-20T20:47:40.743Z,48.13
2019-05-20T20:49:57.713Z,46.33
2019-05-20T20:52:26.665Z,50.00
2019-05-20T20:54:55.618Z,50.28
2019-05-20T20:57:24.581Z,50.28
2019-05-20T20:59:53.598Z,48.58
2019-05-20T21:02:22.553Z,50.92
2019-05-20T21:04:51.517Z,51.48
2019-05-20T21:07:20.460Z,53.15
2019-05-20T21:09:49.434Z,52.93
2019-05-20T21:12:18.395Z,52.70
2019-05-20T21:14:48.460Z,53.30
2019-05-20T21:17:17.472Z,49.48
2019-05-20T21:19:46.433Z,56.30
2019-05-20T21:22:15.445Z,52.23
2019-05-20T21:24:44.455Z,49.35
2019-05-20T21:27:13.416Z,52.75
2019-05-20T21:29:42.446Z,49.15
2019-05-20T21:32:11.414Z,38.63
2019-05-20T21:34:40.467Z,40.25
2019-05-20T21:37:09.467Z,34.50
2019-05-20T21:39:38.423Z,36.95
2019-05-20T21:42:07.466Z,37.95
2019-05-20T21:44:36.479Z,40.50
2019-05-20T21:47:05.427Z,40.73
2019-05-20T21:49:34.387Z,39.33
2019-05-20T21:52:03.336Z,40.73
2019-05-20T21:54:32.381Z,48.35
2019-05-20T21:57:01.324Z,48.90
2019-05-20T21:59:30.288Z,46.25
2019-05-20T22:01:59.301Z,50.25
2019-05-20T22:04:28.260Z,52.07
2019-05-20T22:06:57.209Z,58.40
2019-05-20T22:09:26.206Z,55.43
2019-05-20T22:11:55.199Z,51.70
2019-05-20T22:14:24.144Z,52.67
2019-05-20T22:16:54.159Z,57.50
2019-05-20T22:19:23.113Z,61.07
2019-05-20T22:21:53.706Z,58.30
2019-05-20T22:24:23.611Z,59.07
2019-05-20T22:26:52.566Z,55.53
2019-05-20T22:29:21.526Z,62.30
2019-05-20T22:31:50.472Z,51.23
2019-05-20T22:34:19.437Z,48.93
2019-05-20T22:36:48.363Z,55.03
2019-05-20T22:39:17.315Z,54.07
2019-05-20T22:41:46.279Z,57.47
2019-05-20T22:44:15.227Z,50.93
2019-05-20T22:46:44.172Z,57.37
2019-05-20T22:49:13.153Z,56.13
2019-05-20T22:51:42.090Z,57.60
2019-05-20T22:54:11.385Z,62.87
2019-05-20T22:56:40.444Z,62.57
2019-05-20T22:59:09.384Z,58.03
2019-05-20T23:01:38.422Z,65.73
2019-05-20T23:04:07.363Z,61.60
2019-05-20T23:06:36.315Z,66.30
2019-05-20T23:09:06.294Z,67.60
2019-05-20T23:11:35.248Z,71.43
2019-05-20T23:14:04.291Z,71.37
2019-05-20T23:16:33.342Z,67.83
2019-05-20T23:19:02.288Z,72.43
2019-05-20T23:21:31.232Z,70.03
2019-05-20T23:24:00.180Z,68.07
2019-05-20T23:26:29.152Z,70.00
2019-05-20T23:28:58.103Z,67.67
2019-05-20T23:31:27.141Z,69.03
2019-05-20T23:34:11.453Z,68.00
2019-05-20T23:36:26.754Z,63.97
2019-05-20T23:38:55.715Z,68.97
2019-05-20T23:41:24.664Z,67.50
2019-05-20T23:43:53.621Z,70.60
2019-05-20T23:46:22.572Z,71.43
2019-05-20T23:48:51.607Z,72.90
2019-05-20T23:51:20.572Z,71.67
2019-05-20T23:53:49.517Z,69.77
2019-05-20T23:56:18.480Z,74.93
2019-05-20T23:58:47.692Z,67.63
